createdAt,value
2022-12-31T00:02:20.721Z,93.00
2022-12-31T00:04:47.645Z,93.10
2022-12-31T00:07:14.373Z,93.10
2022-12-31T00:09:41.268Z,93.20
2022-12-31T00:12:08.052Z,93.20
2022-12-31T00:14:34.831Z,93.30
2022-12-31T00:17:01.769Z,93.30
2022-12-31T00:19:28.639Z,93.30
2022-12-31T00:21:55.455Z,93.30
2022-12-31T00:24:22.279Z,93.60
2022-12-31T00:26:49.029Z,93.40
2022-12-31T00:29:15.827Z,93.60
2022-12-31T00:31:42.769Z,93.40
2022-12-31T00:34:10.619Z,93.40
2022-12-31T00:36:38.648Z,93.40
2022-12-31T00:39:06.611Z,93.40
2022-12-31T00:41:33.453Z,93.70
2022-12-31T00:44:00.277Z,93.40
2022-12-31T00:46:27.262Z,93.40
2022-12-31T00:48:54.102Z,93.40
2022-12-31T00:51:22.346Z,93.40
2022-12-31T00:53:49.170Z,93.50
2022-12-31T00:56:21.053Z,93.50
2022-12-31T00:58:48.021Z,93.50
2022-12-31T01:01:19.773Z,93.50
2022-12-31T01:03:47.641Z,93.60
2022-12-31T01:06:14.562Z,93.60
2022-12-31T01:08:41.416Z,93.60
2022-12-31T01:11:22.184Z,93.70
2022-12-31T01:13:53.349Z,93.80
2022-12-31T01:16:26.062Z,93.80
2022-12-31T01:18:52.849Z,93.80
2022-12-31T01:21:20.072Z,93.90
2022-12-31T01:23:46.918Z,93.90
2022-12-31T01:26:14.757Z,93.90
2022-12-31T01:28:41.678Z,93.90
2022-12-31T01:31:10.471Z,94.00
2022-12-31T01:33:37.524Z,94.00
2022-12-31T01:36:09.750Z,94.00
2022-12-31T01:38:36.593Z,94.00
2022-12-31T01:41:03.772Z,94.10
2022-12-31T01:43:48.782Z,94.20
2022-12-31T01:46:42.484Z,94.30
2022-12-31T01:49:37.258Z,94.40
2022-12-31T01:52:28.164Z,94.40
2022-12-31T01:55:12.369Z,94.50
2022-12-31T01:57:39.243Z,94.50
2022-12-31T02:00:06.792Z,94.50
2022-12-31T02:02:33.782Z,94.60
2022-12-31T02:05:00.995Z,94.60
2022-12-31T02:07:27.864Z,94.60
2022-12-31T02:09:54.759Z,94.60
2022-12-31T02:12:21.542Z,94.60
2022-12-31T02:14:50.495Z,94.60
2022-12-31T02:17:35.579Z,94.60
2022-12-31T02:20:05.505Z,94.60
2022-12-31T02:22:35.450Z,94.60
2022-12-31T02:25:39.321Z,94.60
2022-12-31T02:28:50.120Z,94.60
2022-12-31T02:31:27.038Z,94.60
2022-12-31T02:34:02.021Z,94.60
2022-12-31T02:36:32.992Z,94.60
2022-12-31T02:38:59.743Z,94.90
2022-12-31T02:41:45.084Z,94.60
2022-12-31T02:44:27.366Z,94.60
2022-12-31T02:47:09.257Z,94.60
2022-12-31T02:50:11.549Z,94.70
2022-12-31T02:52:44.515Z,94.60
2022-12-31T02:55:19.214Z,94.60
2022-12-31T02:57:56.946Z,94.70
2022-12-31T03:00:42.210Z,94.70
2022-12-31T03:03:09.094Z,94.70
2022-12-31T03:05:39.413Z,94.70
2022-12-31T03:08:06.269Z,94.70
2022-12-31T03:10:33.160Z,94.80
2022-12-31T03:13:00.083Z,94.80
2022-12-31T03:15:31.598Z,94.80
2022-12-31T03:18:09.900Z,94.90
2022-12-31T03:20:59.691Z,94.90
2022-12-31T03:23:34.387Z,94.90
2022-12-31T03:26:01.248Z,94.90
2022-12-31T03:28:29.522Z,95.00
2022-12-31T03:30:58.836Z,95.00
2022-12-31T03:33:25.841Z,95.00
2022-12-31T03:35:52.981Z,95.10
2022-12-31T03:38:19.960Z,95.10
2022-12-31T03:40:48.877Z,95.20
2022-12-31T03:43:15.724Z,95.20
2022-12-31T03:45:42.671Z,95.30
2022-12-31T03:48:09.879Z,95.40
2022-12-31T03:50:36.873Z,95.50
2022-12-31T03:53:03.616Z,95.50
2022-12-31T03:55:30.445Z,95.60
2022-12-31T03:57:57.384Z,95.60
2022-12-31T04:00:24.207Z,95.60
2022-12-31T04:02:51.100Z,95.70
2022-12-31T04:05:18.193Z,95.90
2022-12-31T04:07:45.041Z,95.70
2022-12-31T04:10:12.803Z,95.70
2022-12-31T04:12:39.716Z,95.80
2022-12-31T04:15:07.380Z,95.80
2022-12-31T04:17:34.356Z,95.80
2022-12-31T04:20:02.880Z,95.90
2022-12-31T04:22:29.696Z,95.90
2022-12-31T04:24:56.441Z,96.00
2022-12-31T04:27:23.192Z,96.00
2022-12-31T04:29:50.035Z,96.00
2022-12-31T04:32:16.896Z,96.00
2022-12-31T04:34:43.765Z,96.10
2022-12-31T04:37:10.588Z,96.10
2022-12-31T04:39:37.377Z,96.10
2022-12-31T04:42:04.258Z,96.10
2022-12-31T04:44:31.702Z,96.20
2022-12-31T04:46:58.495Z,96.20
2022-12-31T04:49:25.256Z,96.40
2022-12-31T04:51:51.992Z,96.20
2022-12-31T04:54:18.836Z,96.30
2022-12-31T04:56:49.214Z,96.30
2022-12-31T04:59:16.032Z,96.50
2022-12-31T05:01:42.943Z,96.30
2022-12-31T05:04:09.801Z,96.30
2022-12-31T05:06:36.725Z,96.30
2022-12-31T05:09:03.628Z,96.30
2022-12-31T05:11:30.437Z,96.30
2022-12-31T05:13:57.197Z,96.50
2022-12-31T05:16:24.073Z,96.20
2022-12-31T05:18:50.887Z,96.20
2022-12-31T05:21:20.177Z,96.10
2022-12-31T05:23:47.314Z,96.00
2022-12-31T05:26:14.343Z,96.00
2022-12-31T05:28:41.225Z,95.90
2022-12-31T05:31:08.075Z,95.80
2022-12-31T05:33:34.988Z,95.80
2022-12-31T05:36:01.832Z,95.70
2022-12-31T05:38:28.706Z,95.60
2022-12-31T05:41:03.394Z,95.50
2022-12-31T05:43:30.292Z,95.50
2022-12-31T05:45:57.264Z,95.40
2022-12-31T05:48:24.109Z,95.30
2022-12-31T05:50:50.903Z,95.30
2022-12-31T05:53:17.730Z,95.20
2022-12-31T05:55:47.126Z,95.10
2022-12-31T05:58:15.093Z,95.10
2022-12-31T06:00:42.313Z,95.10
2022-12-31T06:03:09.335Z,95.00
2022-12-31T06:05:39.886Z,95.00
2022-12-31T06:08:06.737Z,94.90
2022-12-31T06:10:33.535Z,94.90
2022-12-31T06:13:00.361Z,94.80
2022-12-31T06:15:27.182Z,94.80
2022-12-31T06:17:53.986Z,94.70
2022-12-31T06:20:20.749Z,94.60
2022-12-31T06:22:47.503Z,94.80
2022-12-31T06:25:14.333Z,94.50
2022-12-31T06:27:41.223Z,94.40
2022-12-31T06:30:08.918Z,94.40
2022-12-31T06:32:35.713Z,94.20
2022-12-31T06:35:02.913Z,94.20
2022-12-31T06:37:29.696Z,94.10
2022-12-31T06:39:56.532Z,94.00
2022-12-31T06:42:23.360Z,93.90
2022-12-31T06:44:50.175Z,93.90
2022-12-31T06:47:16.966Z,93.90
2022-12-31T06:49:43.771Z,93.90
2022-12-31T06:52:10.506Z,93.90
2022-12-31T06:54:37.520Z,93.80
2022-12-31T06:57:05.065Z,93.90
2022-12-31T06:59:32.053Z,93.80
2022-12-31T07:02:21.183Z,93.80
2022-12-31T07:04:51.792Z,93.90
2022-12-31T07:07:24.244Z,94.10
2022-12-31T07:10:06.275Z,93.90
2022-12-31T07:12:46.081Z,94.00
2022-12-31T07:15:40.139Z,94.10
2022-12-31T07:18:10.190Z,94.20
2022-12-31T07:20:37.224Z,94.30
2022-12-31T07:23:04.179Z,94.30
2022-12-31T07:25:31.441Z,94.50
2022-12-31T07:28:07.483Z,94.60
2022-12-31T07:30:44.514Z,94.70
2022-12-31T07:33:23.431Z,94.70
2022-12-31T07:36:11.407Z,95.00
2022-12-31T07:38:58.707Z,94.80
2022-12-31T07:41:44.267Z,94.90
2022-12-31T07:44:35.540Z,94.80
2022-12-31T07:47:03.777Z,94.80
2022-12-31T07:49:31.072Z,94.80
2022-12-31T07:51:58.259Z,94.80
2022-12-31T07:54:25.146Z,94.80
2022-12-31T07:56:51.931Z,94.80
2022-12-31T07:59:48.467Z,94.80
2022-12-31T08:02:32.810Z,94.80
2022-12-31T08:05:12.674Z,94.80
2022-12-31T08:07:52.134Z,94.80
2022-12-31T08:10:49.879Z,94.90
2022-12-31T08:13:16.749Z,94.90
2022-12-31T08:15:43.784Z,94.90
2022-12-31T08:18:10.682Z,94.90
2022-12-31T08:20:49.748Z,94.90
2022-12-31T08:23:20.142Z,94.90
2022-12-31T08:25:59.232Z,94.90
2022-12-31T08:28:52.144Z,94.90
2022-12-31T08:31:45.143Z,94.90
2022-12-31T08:34:30.284Z,94.90
2022-12-31T08:37:16.527Z,95.00
2022-12-31T08:40:19.937Z,95.20
2022-12-31T08:42:55.594Z,94.90
2022-12-31T08:45:25.022Z,94.90
2022-12-31T08:48:15.947Z,95.00
2022-12-31T08:50:42.958Z,95.00
2022-12-31T08:53:09.993Z,95.10
2022-12-31T08:55:37.110Z,95.10
2022-12-31T08:58:10.087Z,95.10
2022-12-31T09:00:36.907Z,95.10
2022-12-31T09:03:42.649Z,95.10
2022-12-31T09:06:18.572Z,95.10
2022-12-31T09:09:11.702Z,95.10
2022-12-31T09:12:06.293Z,95.00
2022-12-31T09:14:41.990Z,95.10
2022-12-31T09:17:24.004Z,95.10
2022-12-31T09:19:51.041Z,95.00
2022-12-31T09:22:18.006Z,95.00
2022-12-31T09:24:44.982Z,95.00
2022-12-31T09:27:23.881Z,94.90
2022-12-31T09:30:08.882Z,94.70
2022-12-31T09:32:48.412Z,94.50
2022-12-31T09:35:39.664Z,94.40
2022-12-31T09:38:27.598Z,94.10
2022-12-31T09:40:59.036Z,94.00
2022-12-31T09:44:00.893Z,94.00
2022-12-31T09:46:31.421Z,93.90
2022-12-31T09:49:16.537Z,94.00
2022-12-31T09:51:49.227Z,93.90
2022-12-31T09:54:19.303Z,93.80
2022-12-31T09:56:48.000Z,93.80
2022-12-31T09:59:34.585Z,93.90
2022-12-31T10:02:24.162Z,93.90
2022-12-31T10:05:28.545Z,94.00
2022-12-31T10:08:31.905Z,94.00
2022-12-31T10:11:18.217Z,94.20
2022-12-31T10:13:45.101Z,94.20
2022-12-31T10:16:30.859Z,94.30
2022-12-31T10:19:22.612Z,94.40
2022-12-31T10:22:17.995Z,94.40
2022-12-31T10:25:11.019Z,94.50
2022-12-31T10:27:48.074Z,94.50
2022-12-31T10:30:24.559Z,94.60
2022-12-31T10:33:18.234Z,94.60
2022-12-31T10:35:53.877Z,94.70
2022-12-31T10:38:30.103Z,94.70
2022-12-31T10:41:24.925Z,94.70
2022-12-31T10:44:19.926Z,94.80
2022-12-31T10:47:12.880Z,94.90
2022-12-31T10:49:50.564Z,94.80
2022-12-31T10:52:41.715Z,94.90
2022-12-31T10:55:31.592Z,95.20
2022-12-31T10:58:17.788Z,95.00
2022-12-31T11:00:54.830Z,95.10
2022-12-31T11:03:37.142Z,95.20
2022-12-31T11:06:36.172Z,95.20
2022-12-31T11:09:17.405Z,95.20
2022-12-31T11:12:02.926Z,95.20
2022-12-31T11:14:48.432Z,95.20
2022-12-31T11:17:37.333Z,95.30
2022-12-31T11:20:29.582Z,95.30
2022-12-31T11:23:04.668Z,95.40
2022-12-31T11:26:08.361Z,95.40
2022-12-31T11:28:54.106Z,95.60
2022-12-31T11:31:47.378Z,95.50
2022-12-31T11:34:20.206Z,95.60
2022-12-31T11:37:04.909Z,95.70
2022-12-31T11:39:40.907Z,95.70
2022-12-31T11:42:11.259Z,95.80
2022-12-31T11:44:45.316Z,95.80
2022-12-31T11:48:20.137Z,96.00
2022-12-31T11:50:39.672Z,96.00
2022-12-31T11:53:38.906Z,96.10
2022-12-31T11:56:15.920Z,96.10
2022-12-31T11:58:46.126Z,96.10
2022-12-31T12:01:17.314Z,96.20
2022-12-31T12:03:45.219Z,96.20
2022-12-31T12:06:13.472Z,96.20
2022-12-31T12:08:40.748Z,96.30
2022-12-31T12:11:27.383Z,96.40
2022-12-31T12:13:54.195Z,96.40
2022-12-31T12:16:21.713Z,96.40
2022-12-31T12:18:50.803Z,96.50
2022-12-31T12:21:18.529Z,96.60
2022-12-31T12:23:58.504Z,96.60
2022-12-31T12:26:34.773Z,96.60
2022-12-31T12:29:20.878Z,96.60
2022-12-31T12:32:15.067Z,96.60
2022-12-31T12:34:47.733Z,96.60
2022-12-31T12:37:37.054Z,96.60
2022-12-31T12:40:34.897Z,96.50
2022-12-31T12:43:02.198Z,96.50
2022-12-31T12:45:39.207Z,96.50
2022-12-31T12:48:10.330Z,96.60
2022-12-31T12:50:42.103Z,96.60
2022-12-31T12:53:14.868Z,96.70
2022-12-31T12:55:47.118Z,96.70
2022-12-31T12:58:19.431Z,96.80
2022-12-31T13:00:51.076Z,96.80
2022-12-31T13:03:30.383Z,96.90
2022-12-31T13:06:09.897Z,96.90
2022-12-31T13:09:03.361Z,96.90
2022-12-31T13:11:55.816Z,97.00
2022-12-31T13:14:41.788Z,97.00
2022-12-31T13:17:55.053Z,97.00
2022-12-31T13:20:41.376Z,97.00
2022-12-31T13:23:16.557Z,97.00
2022-12-31T13:25:58.398Z,97.00
2022-12-31T13:28:25.608Z,97.00
2022-12-31T13:31:06.466Z,97.30
2022-12-31T13:33:37.414Z,97.10
2022-12-31T13:36:07.542Z,97.10
2022-12-31T13:38:48.779Z,97.10
2022-12-31T13:41:19.214Z,97.10
2022-12-31T13:43:51.740Z,97.10
2022-12-31T13:46:37.680Z,97.20
2022-12-31T13:49:36.742Z,97.20
2022-12-31T13:52:06.319Z,97.30
2022-12-31T13:54:42.232Z,97.30
2022-12-31T13:57:36.016Z,97.30
2022-12-31T14:00:05.753Z,97.30
2022-12-31T14:02:44.329Z,97.20
2022-12-31T14:05:47.767Z,97.30
2022-12-31T14:08:15.243Z,97.30
2022-12-31T14:10:52.349Z,97.30
2022-12-31T14:13:37.294Z,97.30
2022-12-31T14:16:40.359Z,97.40
2022-12-31T14:19:16.137Z,97.40
2022-12-31T14:22:01.667Z,97.40
2022-12-31T14:24:51.026Z,97.40
2022-12-31T14:27:38.763Z,97.50
2022-12-31T14:30:15.802Z,97.40
2022-12-31T14:33:00.782Z,97.50
2022-12-31T14:35:46.009Z,97.50
2022-12-31T14:38:40.416Z,97.50
2022-12-31T14:41:12.710Z,97.50
2022-12-31T14:43:58.259Z,97.50
2022-12-31T14:46:54.380Z,97.60
2022-12-31T14:49:52.398Z,97.60
2022-12-31T14:52:29.180Z,97.60
2022-12-31T14:55:02.112Z,97.80
2022-12-31T14:58:01.503Z,97.80
2022-12-31T15:00:38.118Z,97.70
2022-12-31T15:03:32.290Z,97.70
2022-12-31T15:06:09.840Z,97.70
2022-12-31T15:08:42.633Z,97.60
2022-12-31T15:11:49.275Z,97.60
2022-12-31T15:14:43.248Z,97.60
2022-12-31T15:17:25.354Z,97.50
2022-12-31T15:20:13.258Z,97.50
2022-12-31T15:22:44.072Z,97.40
2022-12-31T15:25:19.857Z,97.40
2022-12-31T15:27:46.784Z,97.40
2022-12-31T15:30:28.873Z,97.30
2022-12-31T15:32:59.465Z,97.30
2022-12-31T15:35:30.909Z,97.30
2022-12-31T15:38:07.457Z,97.20
2022-12-31T15:40:48.782Z,97.20
2022-12-31T15:43:24.280Z,97.10
2022-12-31T15:45:54.736Z,97.10
2022-12-31T15:48:27.359Z,97.10
2022-12-31T15:50:55.946Z,97.10
2022-12-31T15:53:41.028Z,97.10
2022-12-31T15:56:08.294Z,97.10
2022-12-31T15:58:36.167Z,97.00
2022-12-31T16:01:32.710Z,97.30
2022-12-31T16:04:20.361Z,97.00
2022-12-31T16:06:50.633Z,97.00
2022-12-31T16:09:21.167Z,97.20
2022-12-31T16:11:47.943Z,96.90
2022-12-31T16:14:35.771Z,96.90
2022-12-31T16:17:02.597Z,97.20
2022-12-31T16:19:42.962Z,97.00
2022-12-31T16:22:17.708Z,97.20
2022-12-31T16:25:19.618Z,97.00
2022-12-31T16:27:31.396Z,97.00
2022-12-31T16:30:04.733Z,97.00
2022-12-31T16:32:35.993Z,97.10
2022-12-31T16:35:05.911Z,97.10
2022-12-31T16:37:36.957Z,97.10
2022-12-31T16:40:18.409Z,97.10
2022-12-31T16:42:46.302Z,97.10
2022-12-31T16:45:28.902Z,97.10
2022-12-31T16:47:55.705Z,97.20
2022-12-31T16:50:23.140Z,97.20
2022-12-31T16:52:51.121Z,97.10
2022-12-31T16:55:23.566Z,97.10
2022-12-31T16:57:55.822Z,97.10
2022-12-31T17:00:24.003Z,97.10
2022-12-31T17:03:14.140Z,97.00
2022-12-31T17:05:59.395Z,97.10
2022-12-31T17:08:58.646Z,97.10
2022-12-31T17:11:30.265Z,97.10
2022-12-31T17:14:06.583Z,97.10
2022-12-31T17:16:34.497Z,97.10
2022-12-31T17:19:01.415Z,97.10
2022-12-31T17:21:29.583Z,97.00
2022-12-31T17:24:04.161Z,97.00
2022-12-31T17:26:32.533Z,97.00
2022-12-31T17:28:59.684Z,97.00
2022-12-31T17:31:31.066Z,97.00
2022-12-31T17:34:13.116Z,96.90
2022-12-31T17:37:18.183Z,96.90
2022-12-31T17:39:49.000Z,96.90
2022-12-31T17:42:23.552Z,96.90
2022-12-31T17:44:50.399Z,96.80
2022-12-31T17:47:17.178Z,96.80
2022-12-31T17:49:45.089Z,96.80
2022-12-31T17:52:15.293Z,96.80
2022-12-31T17:54:42.395Z,96.80
2022-12-31T17:57:21.801Z,96.70
2022-12-31T17:59:48.590Z,96.90
2022-12-31T18:02:15.421Z,96.70
2022-12-31T18:04:42.330Z,96.60
2022-12-31T18:07:09.282Z,96.70
2022-12-31T18:09:36.076Z,96.70
2022-12-31T18:12:03.538Z,96.90
2022-12-31T18:14:30.352Z,96.60
2022-12-31T18:16:57.159Z,96.50
2022-12-31T18:19:54.160Z,96.50
2022-12-31T18:22:15.855Z,96.50
2022-12-31T18:24:43.462Z,96.70
2022-12-31T18:27:17.540Z,96.50
2022-12-31T18:29:44.546Z,96.50
2022-12-31T18:32:26.228Z,96.60
2022-12-31T18:34:53.122Z,96.60
2022-12-31T18:37:22.259Z,96.60
2022-12-31T18:39:49.456Z,96.70
2022-12-31T18:42:17.444Z,96.70
2022-12-31T18:44:44.500Z,96.70
2022-12-31T18:47:15.567Z,96.70
2022-12-31T18:49:42.974Z,96.70
2022-12-31T18:52:13.658Z,96.80
2022-12-31T18:54:40.448Z,97.00
2022-12-31T18:57:07.240Z,96.80
2022-12-31T18:59:34.191Z,96.80
2022-12-31T19:02:01.046Z,96.80
2022-12-31T19:04:28.610Z,96.80
2022-12-31T19:06:55.987Z,96.90
2022-12-31T19:09:44.585Z,97.00
2022-12-31T19:12:13.545Z,97.00
2022-12-31T19:14:40.527Z,97.00
2022-12-31T19:19:34.644Z,96.90
2022-12-31T19:22:01.729Z,96.80
2022-12-31T19:24:28.661Z,96.80
2022-12-31T19:26:55.412Z,96.70
2022-12-31T19:29:26.824Z,96.60
2022-12-31T19:31:53.889Z,96.50
2022-12-31T19:34:20.778Z,96.40
2022-12-31T19:36:47.574Z,96.30
2022-12-31T19:39:19.516Z,96.20
2022-12-31T19:41:47.523Z,96.10
2022-12-31T19:44:16.922Z,96.00
2022-12-31T19:46:44.267Z,96.20
2022-12-31T19:49:12.130Z,95.90
2022-12-31T19:51:39.018Z,95.80
2022-12-31T19:54:06.012Z,95.80
2022-12-31T19:56:32.771Z,96.00
2022-12-31T19:59:07.014Z,95.50
2022-12-31T20:01:33.958Z,95.40
2022-12-31T20:04:01.031Z,95.40
2022-12-31T20:06:27.835Z,95.30
2022-12-31T20:08:54.662Z,95.20
2022-12-31T20:11:22.637Z,95.20
2022-12-31T20:13:49.650Z,95.10
2022-12-31T20:16:17.617Z,95.10
2022-12-31T20:18:45.244Z,95.10
2022-12-31T20:21:14.839Z,95.40
2022-12-31T20:23:41.675Z,95.10
2022-12-31T20:26:08.498Z,95.00
2022-12-31T20:28:36.472Z,95.00
2022-12-31T20:31:07.820Z,95.00
2022-12-31T20:33:34.897Z,94.90
2022-12-31T20:36:03.270Z,94.80
2022-12-31T20:38:30.175Z,94.70
2022-12-31T20:41:05.471Z,94.60
2022-12-31T20:43:32.981Z,94.80
2022-12-31T20:46:00.039Z,94.40
2022-12-31T20:48:26.925Z,94.40
2022-12-31T20:50:57.012Z,94.40
2022-12-31T20:53:23.938Z,94.30
2022-12-31T20:55:50.781Z,94.20
2022-12-31T20:58:17.677Z,94.20
2022-12-31T21:00:51.401Z,94.10
2022-12-31T21:03:53.523Z,94.10
2022-12-31T21:06:05.534Z,94.10
2022-12-31T21:08:35.037Z,94.00
2022-12-31T21:11:02.580Z,94.00
2022-12-31T21:13:31.075Z,94.20
2022-12-31T21:15:58.006Z,94.00
2022-12-31T21:18:24.836Z,93.90
2022-12-31T21:20:52.440Z,93.90
2022-12-31T21:23:19.774Z,94.10
2022-12-31T21:25:48.852Z,93.80
2022-12-31T21:28:15.633Z,93.80
2022-12-31T21:30:43.173Z,93.80
2022-12-31T21:33:10.105Z,93.70
2022-12-31T21:35:53.167Z,93.70
2022-12-31T21:38:20.659Z,93.70
2022-12-31T21:40:47.567Z,93.70
2022-12-31T21:43:14.714Z,93.60
2022-12-31T21:45:41.741Z,93.60
2022-12-31T21:48:23.229Z,93.50
2022-12-31T21:50:54.363Z,93.50
2022-12-31T21:53:26.191Z,93.40
2022-12-31T21:56:09.857Z,93.40
2022-12-31T21:58:41.266Z,93.50
2022-12-31T22:01:28.306Z,93.40
2022-12-31T22:03:55.219Z,93.40
2022-12-31T22:06:22.399Z,93.40
2022-12-31T22:08:51.586Z,93.40
2022-12-31T22:11:18.863Z,93.40
2022-12-31T22:13:45.983Z,93.40
2022-12-31T22:16:17.009Z,93.40
2022-12-31T22:18:44.235Z,93.50
2022-12-31T22:21:18.126Z,93.50
2022-12-31T22:23:51.716Z,93.60
2022-12-31T22:26:19.998Z,93.70
2022-12-31T22:28:46.986Z,93.60
2022-12-31T22:31:18.532Z,93.60
2022-12-31T22:33:45.514Z,93.50
2022-12-31T22:36:14.540Z,93.50
2022-12-31T22:38:41.390Z,93.40
2022-12-31T22:41:09.157Z,93.40
2022-12-31T22:43:37.448Z,93.40
2022-12-31T22:46:11.289Z,93.40
2022-12-31T22:48:38.397Z,93.40
2022-12-31T22:51:05.852Z,93.40
2022-12-31T22:53:32.734Z,93.40
2022-12-31T22:55:59.725Z,93.40
2022-12-31T22:58:26.739Z,93.30
2022-12-31T23:00:53.609Z,93.30
2022-12-31T23:03:20.532Z,93.30
2022-12-31T23:05:50.213Z,93.20
2022-12-31T23:08:22.757Z,93.10
2022-12-31T23:11:00.292Z,93.10
2022-12-31T23:13:59.378Z,93.30
2022-12-31T23:16:46.066Z,93.00
2022-12-31T23:19:31.478Z,93.00
2022-12-31T23:22:16.805Z,93.00
2022-12-31T23:24:43.722Z,93.00
2022-12-31T23:27:10.727Z,93.00
2022-12-31T23:29:45.515Z,92.90
2022-12-31T23:32:13.483Z,92.90
2022-12-31T23:34:40.220Z,92.90
2022-12-31T23:37:06.988Z,92.90
2022-12-31T23:39:33.839Z,92.80
2022-12-31T23:42:00.779Z,92.80
2022-12-31T23:44:27.965Z,92.80
2022-12-31T23:46:54.953Z,92.80
2022-12-31T23:49:22.175Z,92.80
2022-12-31T23:51:48.916Z,92.80
2022-12-31T23:54:15.938Z,92.80
2022-12-31T23:56:42.797Z,92.80
2022-12-31T23:59:09.890Z,92.80
